createdAt,value
2019-02-26T00:02:21.497Z,33.95
2019-02-26T00:04:54.083Z,30.65
2019-02-26T00:07:28.133Z,32.25
2019-02-26T00:09:59.625Z,31.17
2019-02-26T00:15:07.038Z,25.60
2019-02-26T00:17:40.551Z,27.05
2019-02-26T00:20:12.809Z,27.85
2019-02-26T00:22:44.658Z,26.30
2019-02-26T00:25:17.826Z,26.02
2019-02-26T00:27:50.257Z,26.02
2019-02-26T00:32:53.231Z,23.20
2019-02-26T00:35:27.683Z,23.47
2019-02-26T00:40:29.601Z,24.55
2019-02-26T00:43:02.542Z,25.32
2019-02-26T00:45:36.238Z,25.48
2019-02-26T00:48:06.977Z,23.25
2019-02-26T00:50:39.811Z,20.32
2019-02-26T00:55:41.678Z,21.15
2019-02-26T00:58:12.931Z,22.95
2019-02-26T01:00:44.186Z,25.55
2019-02-26T01:03:15.483Z,24.45
2019-02-26T01:05:46.705Z,23.07
2019-02-26T01:08:19.715Z,23.42
2019-02-26T01:10:51.101Z,22.62
2019-02-26T01:13:25.011Z,23.18
2019-02-26T01:15:55.388Z,23.45
2019-02-26T01:18:27.229Z,21.42
2019-02-26T01:21:00.251Z,21.82
2019-02-26T01:23:32.666Z,22.20
2019-02-26T01:26:03.956Z,21.95
2019-02-26T01:28:35.238Z,23.10
2019-02-26T01:31:07.366Z,24.12
2019-02-26T01:33:39.042Z,23.52
2019-02-26T01:36:10.286Z,22.30
2019-02-26T01:38:42.159Z,23.80
2019-02-26T01:41:15.571Z,22.40
2019-02-26T01:43:47.602Z,23.95
2019-02-26T01:46:18.998Z,20.62
2019-02-26T01:48:50.227Z,19.95
2019-02-26T01:51:22.304Z,17.35
2019-02-26T01:53:54.438Z,17.50
2019-02-26T01:56:25.666Z,17.77
2019-02-26T01:59:02.063Z,15.75
2019-02-26T02:04:00.508Z,17.07
2019-02-26T02:06:33.103Z,17.90
2019-02-26T02:09:05.069Z,18.35
2019-02-26T02:11:38.033Z,17.98
2019-02-26T02:16:42.492Z,14.60
2019-02-26T02:19:18.029Z,15.05
2019-02-26T02:21:49.314Z,16.25
2019-02-26T02:24:22.846Z,15.20
2019-02-26T02:26:55.671Z,14.10
2019-02-26T02:29:28.622Z,14.90
2019-02-26T02:32:04.453Z,13.43
2019-02-26T02:37:05.088Z,12.78
2019-02-26T02:39:36.325Z,14.78
2019-02-26T02:42:08.356Z,14.33
2019-02-26T02:44:42.189Z,13.43
2019-02-26T02:47:13.617Z,13.03
2019-02-26T02:49:45.101Z,11.85
2019-02-26T02:52:16.394Z,12.43
2019-02-26T02:54:50.024Z,12.07
2019-02-26T02:57:24.299Z,12.13
2019-02-26T02:59:56.883Z,11.88
2019-02-26T03:02:29.019Z,14.65
2019-02-26T03:05:00.404Z,15.08
2019-02-26T03:07:31.649Z,17.95
2019-02-26T03:10:06.672Z,16.20
2019-02-26T03:12:38.275Z,16.37
2019-02-26T03:15:13.082Z,17.90
2019-02-26T03:17:44.396Z,16.77
2019-02-26T03:20:15.753Z,14.63
2019-02-26T03:22:49.174Z,13.68
2019-02-26T03:25:23.343Z,12.30
2019-02-26T03:27:53.118Z,12.90
2019-02-26T03:30:32.225Z,13.98
2019-02-26T03:35:29.932Z,10.85
2019-02-26T03:38:03.599Z,10.82
2019-02-26T03:40:36.151Z,10.65
2019-02-26T03:43:08.372Z,11.08
2019-02-26T03:45:40.647Z,11.08
2019-02-26T03:48:12.092Z,9.70
2019-02-26T03:50:44.605Z,9.65
2019-02-26T03:53:15.996Z,9.55
2019-02-26T03:55:48.344Z,10.15
2019-02-26T03:58:19.631Z,10.35
2019-02-26T04:00:50.919Z,9.03
2019-02-26T04:03:22.257Z,8.45
2019-02-26T04:05:57.172Z,9.30
2019-02-26T04:08:27.770Z,11.43
2019-02-26T04:11:01.980Z,9.70
2019-02-26T04:13:33.679Z,9.50
2019-02-26T04:16:05.164Z,9.40
2019-02-26T04:18:36.474Z,9.58
2019-02-26T04:21:09.456Z,9.58
2019-02-26T04:23:42.142Z,9.38
2019-02-26T04:26:21.099Z,9.10
2019-02-26T04:29:10.218Z,10.15
2019-02-26T04:31:52.173Z,10.85
2019-02-26T04:34:29.245Z,9.58
2019-02-26T04:37:07.181Z,9.30
2019-02-26T04:39:51.251Z,9.45
2019-02-26T04:42:35.210Z,10.58
2019-02-26T04:45:26.969Z,9.60
2019-02-26T04:48:07.200Z,10.25
2019-02-26T04:50:39.418Z,9.55
2019-02-26T04:53:11.472Z,8.55
2019-02-26T04:55:44.920Z,8.68
2019-02-26T04:58:18.406Z,8.50
2019-02-26T05:00:49.401Z,8.10
2019-02-26T05:03:21.644Z,9.55
2019-02-26T05:05:56.529Z,11.38
2019-02-26T05:08:29.218Z,11.45
2019-02-26T05:13:32.625Z,12.23
2019-02-26T05:18:34.993Z,11.60
2019-02-26T05:21:08.259Z,9.75
2019-02-26T05:23:39.154Z,10.03
2019-02-26T05:26:11.657Z,9.20
2019-02-26T05:31:18.154Z,9.38
2019-02-26T05:33:52.535Z,8.85
2019-02-26T05:36:24.502Z,8.58
2019-02-26T05:38:57.557Z,9.00
2019-02-26T05:41:29.054Z,9.98
2019-02-26T05:44:01.850Z,11.15
2019-02-26T05:49:06.876Z,12.47
2019-02-26T05:51:38.214Z,13.90
2019-02-26T05:56:43.583Z,13.43
2019-02-26T06:01:51.951Z,9.83
2019-02-26T06:04:20.985Z,9.65
2019-02-26T06:06:53.898Z,8.60
2019-02-26T06:09:28.092Z,9.28
2019-02-26T06:11:58.606Z,9.73
2019-02-26T06:14:32.963Z,10.40
2019-02-26T06:19:44.763Z,10.50
2019-02-26T06:22:20.129Z,10.97
2019-02-26T06:27:24.583Z,10.82
2019-02-26T06:29:57.465Z,11.50
2019-02-26T06:32:31.972Z,10.13
2019-02-26T06:35:01.486Z,10.00
2019-02-26T06:37:35.096Z,9.03
2019-02-26T06:42:40.346Z,9.23
2019-02-26T06:45:16.292Z,9.50
2019-02-26T06:47:48.479Z,10.10
2019-02-26T06:50:19.628Z,10.88
2019-02-26T06:52:50.946Z,10.72
2019-02-26T06:55:22.278Z,11.78
2019-02-26T06:57:55.186Z,11.55
2019-02-26T07:00:28.923Z,10.60
2019-02-26T07:05:32.828Z,11.85
2019-02-26T07:08:06.520Z,12.70
2019-02-26T07:13:09.447Z,11.28
2019-02-26T07:18:15.025Z,11.10
2019-02-26T07:23:17.094Z,12.60
2019-02-26T07:25:49.473Z,11.80
2019-02-26T07:28:22.844Z,11.40
2019-02-26T07:30:55.217Z,11.10
2019-02-26T07:33:29.296Z,12.68
2019-02-26T07:36:01.830Z,13.68
2019-02-26T07:38:40.856Z,10.82
2019-02-26T07:41:06.311Z,9.43
2019-02-26T07:43:41.069Z,8.40
2019-02-26T07:46:14.518Z,8.83
2019-02-26T07:48:46.166Z,8.55
2019-02-26T07:53:51.650Z,10.20
2019-02-26T07:56:25.520Z,11.15
2019-02-26T07:59:01.309Z,11.57
2019-02-26T08:01:30.112Z,10.95
2019-02-26T08:04:01.480Z,10.08
2019-02-26T08:06:33.901Z,11.93
2019-02-26T08:09:10.969Z,11.63
2019-02-26T08:11:43.806Z,12.55
2019-02-26T08:16:49.279Z,11.40
2019-02-26T08:19:20.161Z,11.68
2019-02-26T08:21:53.095Z,10.82
2019-02-26T08:24:24.758Z,9.08
2019-02-26T08:26:56.101Z,8.60
2019-02-26T08:29:29.396Z,9.28
2019-02-26T08:34:32.677Z,7.67
2019-02-26T08:37:04.046Z,8.38
2019-02-26T08:39:35.699Z,8.80
2019-02-26T08:44:40.943Z,8.78
2019-02-26T08:47:16.220Z,8.70
2019-02-26T08:52:24.108Z,8.83
2019-02-26T08:54:56.119Z,9.15
2019-02-26T08:57:28.657Z,9.18
2019-02-26T09:00:00.030Z,9.55
2019-02-26T09:02:33.743Z,10.40
2019-02-26T09:05:09.341Z,10.95
2019-02-26T09:07:42.599Z,9.68
2019-02-26T09:10:18.387Z,8.85
2019-02-26T09:12:51.947Z,10.40
2019-02-26T09:15:23.556Z,8.50
2019-02-26T09:17:55.269Z,9.88
2019-02-26T09:20:26.810Z,9.13
2019-02-26T09:23:01.489Z,8.88
2019-02-26T09:25:33.982Z,7.87
2019-02-26T09:28:05.676Z,8.73
2019-02-26T09:30:38.849Z,10.80
2019-02-26T09:33:11.128Z,11.40
2019-02-26T09:35:42.703Z,14.00
2019-02-26T09:38:15.143Z,12.13
2019-02-26T09:40:48.223Z,12.13
2019-02-26T09:43:24.338Z,12.18
2019-02-26T09:45:55.239Z,10.75
2019-02-26T09:48:26.630Z,14.43
2019-02-26T09:50:57.915Z,13.85
2019-02-26T09:53:29.731Z,11.73
2019-02-26T09:56:01.159Z,12.30
2019-02-26T09:58:32.910Z,13.38
2019-02-26T10:01:06.884Z,16.07
2019-02-26T10:03:41.317Z,15.03
2019-02-26T10:06:15.898Z,13.60
2019-02-26T10:08:48.979Z,14.58
2019-02-26T10:13:52.232Z,15.00
2019-02-26T10:16:25.635Z,13.95
2019-02-26T10:18:56.892Z,18.20
2019-02-26T10:21:28.465Z,20.57
2019-02-26T10:24:01.799Z,23.45
2019-02-26T10:26:33.547Z,21.37
2019-02-26T10:29:07.974Z,18.25
2019-02-26T10:34:15.090Z,14.97
2019-02-26T10:39:18.592Z,8.95
2019-02-26T10:41:50.203Z,9.55
2019-02-26T10:44:21.713Z,9.30
2019-02-26T10:46:53.044Z,10.08
2019-02-26T10:49:24.440Z,8.93
2019-02-26T10:51:57.873Z,9.18
2019-02-26T10:57:06.404Z,10.13
2019-02-26T10:59:34.739Z,11.03
2019-02-26T11:02:06.144Z,12.43
2019-02-26T11:04:41.835Z,12.80
2019-02-26T11:07:15.239Z,14.28
2019-02-26T11:12:20.601Z,17.98
2019-02-26T11:17:23.669Z,15.83
2019-02-26T11:19:58.452Z,17.62
2019-02-26T11:22:29.103Z,17.23
2019-02-26T11:25:00.959Z,19.90
2019-02-26T11:27:32.789Z,15.23
2019-02-26T11:30:05.319Z,15.60
2019-02-26T11:32:39.923Z,13.88
2019-02-26T11:37:44.892Z,14.65
2019-02-26T11:40:25.274Z,13.83
2019-02-26T11:42:59.590Z,14.33
2019-02-26T11:45:32.863Z,13.88
2019-02-26T11:48:05.983Z,15.43
2019-02-26T11:53:09.892Z,18.37
2019-02-26T11:55:40.748Z,17.57
2019-02-26T11:58:15.991Z,21.73
2019-02-26T12:00:53.023Z,24.45
2019-02-26T12:03:27.225Z,29.67
2019-02-26T12:06:01.222Z,28.65
2019-02-26T12:08:31.986Z,25.72
2019-02-26T12:11:12.557Z,22.75
2019-02-26T12:13:42.843Z,22.52
2019-02-26T12:16:13.257Z,24.40
2019-02-26T12:18:46.845Z,24.45
2019-02-26T12:23:48.762Z,28.27
2019-02-26T12:26:22.214Z,31.93
2019-02-26T12:28:57.163Z,32.85
2019-02-26T12:31:31.158Z,33.92
2019-02-26T12:34:20.852Z,31.55
2019-02-26T12:36:53.729Z,33.38
2019-02-26T12:39:27.940Z,34.63
2019-02-26T12:41:58.657Z,35.30
2019-02-26T12:44:31.911Z,37.48
2019-02-26T12:49:36.526Z,40.90
2019-02-26T12:54:39.773Z,35.88
2019-02-26T12:57:10.294Z,32.63
2019-02-26T12:59:42.805Z,34.08
2019-02-26T13:02:17.036Z,28.73
2019-02-26T13:04:50.095Z,27.35
2019-02-26T13:07:20.498Z,28.27
2019-02-26T13:12:29.675Z,25.72
2019-02-26T13:17:32.281Z,22.87
2019-02-26T13:20:05.988Z,24.72
2019-02-26T13:22:37.755Z,22.87
2019-02-26T13:25:15.545Z,22.82
2019-02-26T13:27:47.432Z,24.77
2019-02-26T13:30:23.967Z,23.73
2019-02-26T13:32:58.123Z,24.77
2019-02-26T13:38:00.558Z,25.40
2019-02-26T13:45:36.137Z,27.50
2019-02-26T13:48:07.494Z,28.07
2019-02-26T13:50:39.155Z,26.52
2019-02-26T13:53:10.602Z,27.70
2019-02-26T13:55:43.442Z,28.00
2019-02-26T14:00:45.509Z,24.72
2019-02-26T14:03:17.012Z,22.35
2019-02-26T14:05:48.432Z,19.45
2019-02-26T14:08:19.839Z,21.15
2019-02-26T14:10:51.088Z,19.70
2019-02-26T14:13:22.541Z,17.60
2019-02-26T14:15:53.765Z,15.93
2019-02-26T14:18:25.148Z,15.03
2019-02-26T14:20:56.416Z,14.85
2019-02-26T14:23:27.768Z,15.18
2019-02-26T14:26:00.010Z,14.40
2019-02-26T14:28:31.426Z,13.75
2019-02-26T14:31:02.736Z,14.75
2019-02-26T14:33:34.120Z,14.50
2019-02-26T14:36:06.112Z,14.70
2019-02-26T14:38:37.380Z,15.18
2019-02-26T14:41:08.954Z,14.53
2019-02-26T14:43:42.574Z,12.90
2019-02-26T14:46:13.963Z,11.83
2019-02-26T14:48:45.221Z,12.07
2019-02-26T14:51:17.771Z,11.20
2019-02-26T14:56:21.074Z,11.57
2019-02-26T14:58:52.367Z,12.63
2019-02-26T15:01:25.256Z,12.07
2019-02-26T15:03:58.255Z,13.08
2019-02-26T15:06:29.567Z,12.78
2019-02-26T15:09:01.000Z,12.33
2019-02-26T15:11:34.035Z,12.80
2019-02-26T15:14:05.747Z,12.35
2019-02-26T15:16:37.283Z,11.80
2019-02-26T15:19:08.870Z,12.47
2019-02-26T15:21:40.629Z,13.70
2019-02-26T15:24:12.127Z,14.50
2019-02-26T15:26:43.503Z,14.80
2019-02-26T15:29:14.782Z,14.10
2019-02-26T15:31:46.105Z,14.87
2019-02-26T15:34:17.417Z,13.53
2019-02-26T15:36:50.633Z,13.85
2019-02-26T15:39:21.955Z,13.70
2019-02-26T15:44:26.123Z,13.40
2019-02-26T15:46:59.589Z,14.58
2019-02-26T15:49:31.763Z,15.10
2019-02-26T15:52:04.723Z,14.60
2019-02-26T15:54:36.335Z,14.00
2019-02-26T15:57:07.653Z,15.43
2019-02-26T15:59:39.041Z,16.35
2019-02-26T16:02:10.414Z,14.63
2019-02-26T16:04:41.786Z,18.02
2019-02-26T16:07:13.234Z,16.87
2019-02-26T16:09:44.525Z,22.22
2019-02-26T16:12:15.793Z,19.00
2019-02-26T16:14:47.204Z,16.37
2019-02-26T16:17:18.508Z,15.88
2019-02-26T16:19:49.870Z,15.63
2019-02-26T16:22:21.183Z,16.05
2019-02-26T16:24:52.463Z,16.70
2019-02-26T16:27:23.786Z,16.37
2019-02-26T16:29:55.049Z,19.10
2019-02-26T16:32:26.610Z,17.95
2019-02-26T16:34:58.573Z,15.58
2019-02-26T16:37:30.183Z,15.15
2019-02-26T16:40:03.228Z,15.58
2019-02-26T16:42:35.066Z,15.48
2019-02-26T16:45:09.454Z,17.87
2019-02-26T16:47:41.283Z,16.42
2019-02-26T16:50:17.196Z,17.85
2019-02-26T16:52:51.278Z,16.55
2019-02-26T16:55:23.051Z,17.52
2019-02-26T16:57:54.347Z,17.87
2019-02-26T17:00:29.892Z,16.20
2019-02-26T17:03:01.448Z,17.42
2019-02-26T17:05:32.924Z,19.23
2019-02-26T17:08:04.237Z,16.35
2019-02-26T17:10:35.574Z,17.55
2019-02-26T17:13:06.823Z,18.23
2019-02-26T17:15:38.115Z,20.80
2019-02-26T17:18:10.332Z,17.77
2019-02-26T17:20:41.900Z,17.95
2019-02-26T17:23:14.817Z,18.02
2019-02-26T17:25:46.205Z,17.90
2019-02-26T17:28:17.597Z,17.65
2019-02-26T17:30:48.887Z,16.45
2019-02-26T17:33:20.157Z,15.88
2019-02-26T17:35:52.894Z,16.52
2019-02-26T17:38:26.020Z,17.48
2019-02-26T17:40:57.534Z,18.15
2019-02-26T17:43:29.174Z,18.57
2019-02-26T17:46:00.520Z,17.98
2019-02-26T17:48:43.041Z,17.85
2019-02-26T17:53:36.572Z,17.57
2019-02-26T17:56:09.884Z,17.15
2019-02-26T17:58:41.744Z,20.23
2019-02-26T18:01:14.089Z,19.05
2019-02-26T18:03:45.485Z,21.35
2019-02-26T18:06:16.795Z,21.27
2019-02-26T18:08:48.227Z,21.27
2019-02-26T18:11:20.866Z,21.62
2019-02-26T18:13:52.548Z,21.05
2019-02-26T18:16:23.811Z,19.50
2019-02-26T18:18:55.075Z,18.30
2019-02-26T18:21:26.306Z,17.40
2019-02-26T18:23:57.595Z,20.08
2019-02-26T18:26:28.817Z,17.57
2019-02-26T18:29:00.106Z,18.30
2019-02-26T18:31:31.728Z,17.60
2019-02-26T18:34:03.245Z,18.55
2019-02-26T18:36:34.752Z,19.87
2019-02-26T18:39:06.830Z,19.98
2019-02-26T18:41:38.753Z,17.32
2019-02-26T18:44:10.338Z,17.98
2019-02-26T18:46:41.756Z,17.70
2019-02-26T18:49:13.050Z,16.55
2019-02-26T18:51:44.459Z,19.23
2019-02-26T18:54:17.718Z,17.17
2019-02-26T18:56:49.914Z,16.45
2019-02-26T18:59:21.609Z,15.72
2019-02-26T19:01:53.472Z,17.45
2019-02-26T19:04:24.813Z,16.27
2019-02-26T19:06:59.415Z,16.48
2019-02-26T19:09:29.258Z,15.05
2019-02-26T19:12:00.581Z,16.95
2019-02-26T19:14:31.988Z,15.32
2019-02-26T19:17:03.289Z,16.23
2019-02-26T19:19:34.651Z,14.10
2019-02-26T19:22:06.034Z,13.53
2019-02-26T19:24:38.374Z,14.10
2019-02-26T19:27:10.628Z,14.35
2019-02-26T19:29:41.994Z,14.07
2019-02-26T19:32:15.483Z,15.03
2019-02-26T19:34:46.526Z,13.65
2019-02-26T19:37:19.138Z,13.80
2019-02-26T19:39:50.859Z,15.50
2019-02-26T19:42:21.990Z,13.90
2019-02-26T19:44:53.287Z,14.50
2019-02-26T19:47:24.569Z,13.88
2019-02-26T19:49:55.850Z,13.88
2019-02-26T19:52:27.158Z,14.38
2019-02-26T19:54:59.599Z,14.00
2019-02-26T19:57:30.976Z,13.28
2019-02-26T20:00:02.341Z,12.80
2019-02-26T20:02:34.687Z,13.78
2019-02-26T20:05:09.528Z,13.40
2019-02-26T20:07:41.656Z,13.53
2019-02-26T20:10:16.098Z,12.90
2019-02-26T20:12:47.337Z,13.68
2019-02-26T20:15:21.720Z,13.40
2019-02-26T20:17:51.602Z,15.60
2019-02-26T20:20:22.910Z,14.80
2019-02-26T20:22:54.238Z,12.55
2019-02-26T20:25:25.602Z,13.68
2019-02-26T20:28:04.834Z,13.15
2019-02-26T20:30:29.992Z,24.52
2019-02-26T20:33:01.562Z,14.58
2019-02-26T20:35:34.350Z,13.03
2019-02-26T20:38:05.679Z,11.65
2019-02-26T20:40:37.075Z,11.63
2019-02-26T20:43:08.365Z,11.68
2019-02-26T20:45:39.637Z,12.05
2019-02-26T20:48:11.056Z,11.48
2019-02-26T20:50:42.390Z,11.70
2019-02-26T20:53:13.604Z,13.00
2019-02-26T20:55:52.273Z,11.93
2019-02-26T20:58:18.118Z,11.35
2019-02-26T21:00:49.396Z,11.00
2019-02-26T21:03:20.721Z,10.85
2019-02-26T21:05:51.951Z,11.08
2019-02-26T21:08:23.155Z,10.75
2019-02-26T21:10:54.430Z,10.70
2019-02-26T21:13:25.728Z,10.63
2019-02-26T21:15:57.011Z,10.65
2019-02-26T21:18:30.338Z,10.28
2019-02-26T21:21:01.397Z,10.28
2019-02-26T21:23:32.768Z,10.60
2019-02-26T21:26:04.070Z,10.53
2019-02-26T21:28:35.429Z,9.83
2019-02-26T21:31:06.680Z,9.40
2019-02-26T21:33:37.989Z,9.83
2019-02-26T21:36:09.437Z,9.85
2019-02-26T21:38:40.750Z,10.43
2019-02-26T21:41:12.127Z,10.85
2019-02-26T21:43:43.398Z,10.10
2019-02-26T21:46:14.697Z,10.38
2019-02-26T21:48:45.986Z,10.72
2019-02-26T21:51:17.284Z,10.90
2019-02-26T21:53:49.230Z,10.13
2019-02-26T21:56:22.234Z,10.10
2019-02-26T21:58:54.212Z,9.37
2019-02-26T22:01:25.919Z,9.45
2019-02-26T22:03:58.597Z,9.73
2019-02-26T22:06:30.168Z,9.03
2019-02-26T22:09:01.460Z,7.92
2019-02-26T22:11:34.306Z,7.72
2019-02-26T22:14:05.696Z,9.73
2019-02-26T22:16:36.931Z,9.60
2019-02-26T22:19:08.225Z,8.38
2019-02-26T22:21:41.058Z,8.08
2019-02-26T22:24:12.313Z,7.22
2019-02-26T22:26:43.550Z,7.60
2019-02-26T22:29:15.303Z,8.35
2019-02-26T22:31:47.196Z,7.97
2019-02-26T22:34:19.074Z,7.37
2019-02-26T22:36:51.118Z,7.92
2019-02-26T22:39:23.259Z,7.30
2019-02-26T22:41:54.750Z,7.25
2019-02-26T22:44:27.175Z,7.58
2019-02-26T22:46:59.201Z,7.50
2019-02-26T22:49:30.663Z,7.30
2019-02-26T22:52:01.860Z,8.35
2019-02-26T22:54:35.001Z,7.55
2019-02-26T22:57:07.630Z,7.03
2019-02-26T22:59:40.832Z,7.28
2019-02-26T23:02:12.291Z,6.60
2019-02-26T23:04:44.909Z,6.95
2019-02-26T23:07:16.574Z,6.83
2019-02-26T23:09:52.182Z,6.67
2019-02-26T23:12:21.558Z,7.22
2019-02-26T23:14:52.906Z,7.17
2019-02-26T23:17:25.392Z,6.85
2019-02-26T23:19:56.733Z,7.58
2019-02-26T23:22:28.327Z,7.10
2019-02-26T23:25:00.868Z,6.60
2019-02-26T23:27:33.098Z,7.05
2019-02-26T23:30:08.183Z,6.87
2019-02-26T23:32:40.848Z,7.05
2019-02-26T23:35:13.024Z,6.75
2019-02-26T23:37:44.503Z,7.22
2019-02-26T23:40:16.124Z,6.90
2019-02-26T23:42:47.886Z,7.40
2019-02-26T23:45:19.340Z,7.15
2019-02-26T23:47:51.094Z,6.62
2019-02-26T23:50:22.753Z,6.72
2019-02-26T23:52:54.615Z,6.67
2019-02-26T23:55:26.178Z,6.72
2019-02-26T23:57:58.524Z,6.37
